sensor_id;sensor_type;location;lat;lon;timestamp;P1;durP1;ratioP1;P2;durP2;ratioP2
59585;SDS011;45408;52.686;7.310;2023-03-14T00:02:07;13.10;;;3.20;;
59585;SDS011;45408;52.686;7.310;2023-03-14T00:04:33;12.63;;;3.08;;
59585;SDS011;45408;52.686;7.310;2023-03-14T00:06:59;8.38;;;2.95;;
59585;SDS011;45408;52.686;7.310;2023-03-14T00:09:25;12.52;;;2.90;;
59585;SDS011;45408;52.686;7.310;2023-03-14T00:11:52;13.57;;;3.88;;
59585;SDS011;45408;52.686;7.310;2023-03-14T00:14:18;11.85;;;3.60;;
59585;SDS011;45408;52.686;7.310;2023-03-14T00:16:47;8.75;;;2.95;;
59585;SDS011;45408;52.686;7.310;2023-03-14T00:19:13;11.05;;;2.88;;
59585;SDS011;45408;52.686;7.310;2023-03-14T00:21:39;8.65;;;2.45;;
59585;SDS011;45408;52.686;7.310;2023-03-14T00:24:05;8.98;;;2.50;;
59585;SDS011;45408;52.686;7.310;2023-03-14T00:26:31;9.82;;;3.83;;
59585;SDS011;45408;52.686;7.310;2023-03-14T00:28:57;6.22;;;2.47;;
59585;SDS011;45408;52.686;7.310;2023-03-14T00:31:23;13.32;;;2.55;;
59585;SDS011;45408;52.686;7.310;2023-03-14T00:33:51;11.20;;;2.83;;
59585;SDS011;45408;52.686;7.310;2023-03-14T00:36:17;11.90;;;3.42;;
59585;SDS011;45408;52.686;7.310;2023-03-14T00:38:45;9.83;;;3.60;;
59585;SDS011;45408;52.686;7.310;2023-03-14T00:41:12;11.20;;;2.90;;
59585;SDS011;45408;52.686;7.310;2023-03-14T00:43:39;8.20;;;2.85;;
59585;SDS011;45408;52.686;7.310;2023-03-14T00:46:05;11.75;;;2.80;;
59585;SDS011;45408;52.686;7.310;2023-03-14T00:48:31;11.07;;;3.30;;
59585;SDS011;45408;52.686;7.310;2023-03-14T00:50:57;13.15;;;3.00;;
59585;SDS011;45408;52.686;7.310;2023-03-14T00:53:23;10.30;;;2.63;;
59585;SDS011;45408;52.686;7.310;2023-03-14T00:55:49;9.00;;;2.83;;
59585;SDS011;45408;52.686;7.310;2023-03-14T00:58:16;9.80;;;2.90;;
59585;SDS011;45408;52.686;7.310;2023-03-14T01:00:42;17.55;;;2.90;;
59585;SDS011;45408;52.686;7.310;2023-03-14T01:03:08;8.05;;;3.00;;
59585;SDS011;45408;52.686;7.310;2023-03-14T01:05:35;10.73;;;2.67;;
59585;SDS011;45408;52.686;7.310;2023-03-14T01:08:01;9.77;;;2.83;;
59585;SDS011;45408;52.686;7.310;2023-03-14T01:10:27;11.85;;;2.75;;
59585;SDS011;45408;52.686;7.310;2023-03-14T01:12:53;9.23;;;2.83;;
59585;SDS011;45408;52.686;7.310;2023-03-14T01:15:19;8.38;;;2.85;;
59585;SDS011;45408;52.686;7.310;2023-03-14T01:17:45;7.57;;;2.20;;
59585;SDS011;45408;52.686;7.310;2023-03-14T01:20:12;8.52;;;2.40;;
59585;SDS011;45408;52.686;7.310;2023-03-14T01:22:39;9.05;;;2.70;;
59585;SDS011;45408;52.686;7.310;2023-03-14T01:25:05;9.27;;;2.90;;
59585;SDS011;45408;52.686;7.310;2023-03-14T01:27:32;8.85;;;2.35;;
59585;SDS011;45408;52.686;7.310;2023-03-14T01:29:58;7.60;;;2.60;;
59585;SDS011;45408;52.686;7.310;2023-03-14T01:32:24;11.27;;;2.60;;
59585;SDS011;45408;52.686;7.310;2023-03-14T01:34:50;9.70;;;2.97;;
59585;SDS011;45408;52.686;7.310;2023-03-14T01:37:16;12.27;;;2.50;;
59585;SDS011;45408;52.686;7.310;2023-03-14T01:39:42;12.43;;;2.83;;
59585;SDS011;45408;52.686;7.310;2023-03-14T01:42:08;18.00;;;3.05;;
59585;SDS011;45408;52.686;7.310;2023-03-14T01:47:19;5.43;;;2.00;;
59585;SDS011;45408;52.686;7.310;2023-03-14T01:49:46;10.07;;;2.60;;
59585;SDS011;45408;52.686;7.310;2023-03-14T01:52:15;10.45;;;2.22;;
59585;SDS011;45408;52.686;7.310;2023-03-14T01:54:53;11.90;;;2.42;;
59585;SDS011;45408;52.686;7.310;2023-03-14T01:59:58;11.65;;;2.78;;
59585;SDS011;45408;52.686;7.310;2023-03-14T02:04:51;10.48;;;2.67;;
59585;SDS011;45408;52.686;7.310;2023-03-14T02:07:25;7.13;;;2.53;;
59585;SDS011;45408;52.686;7.310;2023-03-14T02:09:54;7.97;;;2.60;;
59585;SDS011;45408;52.686;7.310;2023-03-14T02:12:21;7.50;;;2.25;;
59585;SDS011;45408;52.686;7.310;2023-03-14T02:14:47;9.40;;;2.65;;
59585;SDS011;45408;52.686;7.310;2023-03-14T02:17:14;12.57;;;2.97;;
59585;SDS011;45408;52.686;7.310;2023-03-14T02:22:08;10.57;;;2.95;;
59585;SDS011;45408;52.686;7.310;2023-03-14T02:24:38;5.78;;;2.13;;
59585;SDS011;45408;52.686;7.310;2023-03-14T02:27:06;3.33;;;2.03;;
59585;SDS011;45408;52.686;7.310;2023-03-14T02:29:33;6.60;;;2.80;;
59585;SDS011;45408;52.686;7.310;2023-03-14T02:32:00;8.30;;;2.97;;
59585;SDS011;45408;52.686;7.310;2023-03-14T02:34:26;8.50;;;2.80;;
59585;SDS011;45408;52.686;7.310;2023-03-14T02:36:52;8.50;;;2.33;;
59585;SDS011;45408;52.686;7.310;2023-03-14T02:39:24;6.70;;;2.33;;
59585;SDS011;45408;52.686;7.310;2023-03-14T02:41:52;7.55;;;3.40;;
59585;SDS011;45408;52.686;7.310;2023-03-14T02:44:18;8.77;;;2.80;;
59585;SDS011;45408;52.686;7.310;2023-03-14T02:46:44;5.50;;;2.60;;
59585;SDS011;45408;52.686;7.310;2023-03-14T02:49:10;12.18;;;3.20;;
59585;SDS011;45408;52.686;7.310;2023-03-14T02:51:37;7.82;;;2.90;;
59585;SDS011;45408;52.686;7.310;2023-03-14T02:54:04;5.97;;;2.53;;
59585;SDS011;45408;52.686;7.310;2023-03-14T02:56:30;9.75;;;2.80;;
59585;SDS011;45408;52.686;7.310;2023-03-14T02:58:56;7.22;;;2.53;;
59585;SDS011;45408;52.686;7.310;2023-03-14T03:01:22;7.90;;;2.58;;
59585;SDS011;45408;52.686;7.310;2023-03-14T03:03:48;16.77;;;2.80;;
59585;SDS011;45408;52.686;7.310;2023-03-14T03:06:14;9.55;;;3.03;;
59585;SDS011;45408;52.686;7.310;2023-03-14T03:08:41;9.95;;;2.67;;
59585;SDS011;45408;52.686;7.310;2023-03-14T03:11:07;7.47;;;2.50;;
59585;SDS011;45408;52.686;7.310;2023-03-14T03:13:33;11.18;;;2.42;;
59585;SDS011;45408;52.686;7.310;2023-03-14T03:15:59;8.60;;;2.10;;
59585;SDS011;45408;52.686;7.310;2023-03-14T03:18:25;6.38;;;1.63;;
59585;SDS011;45408;52.686;7.310;2023-03-14T03:20:51;6.53;;;1.70;;
59585;SDS011;45408;52.686;7.310;2023-03-14T03:23:17;4.05;;;1.33;;
59585;SDS011;45408;52.686;7.310;2023-03-14T03:25:47;4.47;;;1.38;;
59585;SDS011;45408;52.686;7.310;2023-03-14T03:28:13;3.30;;;1.00;;
59585;SDS011;45408;52.686;7.310;2023-03-14T03:30:40;5.78;;;1.77;;
59585;SDS011;45408;52.686;7.310;2023-03-14T03:33:06;4.53;;;1.60;;
59585;SDS011;45408;52.686;7.310;2023-03-14T03:35:32;13.77;;;1.60;;
59585;SDS011;45408;52.686;7.310;2023-03-14T03:37:58;4.38;;;1.40;;
59585;SDS011;45408;52.686;7.310;2023-03-14T03:40:24;6.45;;;1.52;;
59585;SDS011;45408;52.686;7.310;2023-03-14T03:42:50;6.93;;;1.63;;
59585;SDS011;45408;52.686;7.310;2023-03-14T03:45:16;3.45;;;1.20;;
59585;SDS011;45408;52.686;7.310;2023-03-14T03:47:42;10.07;;;1.58;;
59585;SDS011;45408;52.686;7.310;2023-03-14T03:50:08;5.53;;;1.67;;
59585;SDS011;45408;52.686;7.310;2023-03-14T03:52:34;6.05;;;1.50;;
59585;SDS011;45408;52.686;7.310;2023-03-14T03:55:00;7.95;;;1.85;;
59585;SDS011;45408;52.686;7.310;2023-03-14T03:57:26;6.95;;;2.00;;
59585;SDS011;45408;52.686;7.310;2023-03-14T03:59:52;5.25;;;1.92;;
59585;SDS011;45408;52.686;7.310;2023-03-14T04:02:18;8.90;;;2.30;;
59585;SDS011;45408;52.686;7.310;2023-03-14T04:04:44;12.85;;;3.33;;
59585;SDS011;45408;52.686;7.310;2023-03-14T04:07:10;11.30;;;3.03;;
59585;SDS011;45408;52.686;7.310;2023-03-14T04:09:38;7.05;;;2.03;;
59585;SDS011;45408;52.686;7.310;2023-03-14T04:12:04;9.98;;;2.30;;
59585;SDS011;45408;52.686;7.310;2023-03-14T04:14:30;6.90;;;2.00;;
59585;SDS011;45408;52.686;7.310;2023-03-14T04:16:56;4.38;;;1.90;;
59585;SDS011;45408;52.686;7.310;2023-03-14T04:19:22;10.27;;;2.40;;
59585;SDS011;45408;52.686;7.310;2023-03-14T04:21:48;12.32;;;2.42;;
59585;SDS011;45408;52.686;7.310;2023-03-14T04:24:14;9.13;;;2.15;;
59585;SDS011;45408;52.686;7.310;2023-03-14T04:26:40;6.93;;;2.05;;
59585;SDS011;45408;52.686;7.310;2023-03-14T04:29:06;7.15;;;2.05;;
59585;SDS011;45408;52.686;7.310;2023-03-14T04:31:32;7.40;;;1.92;;
59585;SDS011;45408;52.686;7.310;2023-03-14T04:33:58;7.88;;;2.13;;
59585;SDS011;45408;52.686;7.310;2023-03-14T04:36:24;5.68;;;1.65;;
59585;SDS011;45408;52.686;7.310;2023-03-14T04:38:50;9.27;;;2.15;;
59585;SDS011;45408;52.686;7.310;2023-03-14T04:41:16;3.78;;;1.50;;
59585;SDS011;45408;52.686;7.310;2023-03-14T04:43:42;5.90;;;1.67;;
59585;SDS011;45408;52.686;7.310;2023-03-14T04:46:08;6.00;;;1.88;;
59585;SDS011;45408;52.686;7.310;2023-03-14T04:48:34;5.05;;;2.08;;
59585;SDS011;45408;52.686;7.310;2023-03-14T04:51:00;8.27;;;1.70;;
59585;SDS011;45408;52.686;7.310;2023-03-14T04:53:26;4.03;;;1.80;;
59585;SDS011;45408;52.686;7.310;2023-03-14T04:55:53;6.60;;;2.10;;
59585;SDS011;45408;52.686;7.310;2023-03-14T04:58:19;4.10;;;1.50;;
59585;SDS011;45408;52.686;7.310;2023-03-14T05:00:45;7.38;;;1.98;;
59585;SDS011;45408;52.686;7.310;2023-03-14T05:03:11;6.05;;;1.70;;
59585;SDS011;45408;52.686;7.310;2023-03-14T05:05:37;7.88;;;1.92;;
59585;SDS011;45408;52.686;7.310;2023-03-14T05:08:03;5.45;;;1.77;;
59585;SDS011;45408;52.686;7.310;2023-03-14T05:10:29;5.80;;;1.75;;
59585;SDS011;45408;52.686;7.310;2023-03-14T05:12:55;7.43;;;2.15;;
59585;SDS011;45408;52.686;7.310;2023-03-14T05:15:21;5.78;;;1.75;;
59585;SDS011;45408;52.686;7.310;2023-03-14T05:17:47;10.82;;;2.47;;
59585;SDS011;45408;52.686;7.310;2023-03-14T05:20:14;9.85;;;2.20;;
59585;SDS011;45408;52.686;7.310;2023-03-14T05:22:40;11.85;;;2.55;;
59585;SDS011;45408;52.686;7.310;2023-03-14T05:25:07;8.15;;;2.00;;
59585;SDS011;45408;52.686;7.310;2023-03-14T05:27:33;11.98;;;2.15;;
59585;SDS011;45408;52.686;7.310;2023-03-14T05:29:59;9.02;;;1.95;;
59585;SDS011;45408;52.686;7.310;2023-03-14T05:32:25;10.65;;;2.38;;
59585;SDS011;45408;52.686;7.310;2023-03-14T05:34:51;6.20;;;1.58;;
59585;SDS011;45408;52.686;7.310;2023-03-14T05:37:17;10.98;;;2.15;;
59585;SDS011;45408;52.686;7.310;2023-03-14T05:39:43;5.70;;;2.03;;
59585;SDS011;45408;52.686;7.310;2023-03-14T05:42:09;12.18;;;2.20;;
59585;SDS011;45408;52.686;7.310;2023-03-14T05:44:35;12.82;;;1.92;;
59585;SDS011;45408;52.686;7.310;2023-03-14T05:47:01;9.73;;;1.95;;
59585;SDS011;45408;52.686;7.310;2023-03-14T05:49:27;18.52;;;2.20;;
59585;SDS011;45408;52.686;7.310;2023-03-14T05:51:53;14.02;;;2.40;;
59585;SDS011;45408;52.686;7.310;2023-03-14T05:54:19;8.05;;;2.20;;
59585;SDS011;45408;52.686;7.310;2023-03-14T05:56:44;10.23;;;2.05;;
59585;SDS011;45408;52.686;7.310;2023-03-14T05:59:10;11.40;;;2.33;;
59585;SDS011;45408;52.686;7.310;2023-03-14T06:01:38;13.57;;;1.80;;
59585;SDS011;45408;52.686;7.310;2023-03-14T06:04:04;7.88;;;2.90;;
59585;SDS011;45408;52.686;7.310;2023-03-14T06:06:30;9.38;;;2.05;;
59585;SDS011;45408;52.686;7.310;2023-03-14T06:08:56;5.95;;;1.85;;
59585;SDS011;45408;52.686;7.310;2023-03-14T06:11:22;7.38;;;2.03;;
59585;SDS011;45408;52.686;7.310;2023-03-14T06:13:48;6.07;;;2.00;;
59585;SDS011;45408;52.686;7.310;2023-03-14T06:16:14;9.30;;;2.00;;
59585;SDS011;45408;52.686;7.310;2023-03-14T06:18:40;8.30;;;2.00;;
59585;SDS011;45408;52.686;7.310;2023-03-14T06:21:06;5.97;;;1.60;;
59585;SDS011;45408;52.686;7.310;2023-03-14T06:23:32;12.40;;;2.13;;
59585;SDS011;45408;52.686;7.310;2023-03-14T06:25:58;10.85;;;2.17;;
59585;SDS011;45408;52.686;7.310;2023-03-14T06:28:24;7.10;;;1.65;;
59585;SDS011;45408;52.686;7.310;2023-03-14T06:30:50;7.53;;;1.85;;
59585;SDS011;45408;52.686;7.310;2023-03-14T06:33:16;7.28;;;1.70;;
59585;SDS011;45408;52.686;7.310;2023-03-14T06:35:42;10.23;;;2.10;;
59585;SDS011;45408;52.686;7.310;2023-03-14T06:38:08;8.13;;;1.65;;
59585;SDS011;45408;52.686;7.310;2023-03-14T06:40:34;8.63;;;2.08;;
59585;SDS011;45408;52.686;7.310;2023-03-14T06:43:00;12.73;;;2.42;;
59585;SDS011;45408;52.686;7.310;2023-03-14T06:45:26;10.38;;;2.30;;
59585;SDS011;45408;52.686;7.310;2023-03-14T06:47:52;7.50;;;1.98;;
59585;SDS011;45408;52.686;7.310;2023-03-14T06:50:18;12.48;;;2.45;;
59585;SDS011;45408;52.686;7.310;2023-03-14T06:52:44;8.25;;;2.10;;
59585;SDS011;45408;52.686;7.310;2023-03-14T06:55:13;8.43;;;1.90;;
59585;SDS011;45408;52.686;7.310;2023-03-14T06:57:39;8.20;;;1.88;;
59585;SDS011;45408;52.686;7.310;2023-03-14T07:00:05;8.75;;;1.70;;
59585;SDS011;45408;52.686;7.310;2023-03-14T07:02:31;7.88;;;1.83;;
59585;SDS011;45408;52.686;7.310;2023-03-14T07:04:57;7.88;;;1.90;;
59585;SDS011;45408;52.686;7.310;2023-03-14T07:07:24;7.38;;;1.92;;
59585;SDS011;45408;52.686;7.310;2023-03-14T07:09:49;6.72;;;2.08;;
59585;SDS011;45408;52.686;7.310;2023-03-14T07:12:15;7.60;;;1.55;;
59585;SDS011;45408;52.686;7.310;2023-03-14T07:14:41;5.03;;;1.67;;
59585;SDS011;45408;52.686;7.310;2023-03-14T07:17:07;7.10;;;1.92;;
59585;SDS011;45408;52.686;7.310;2023-03-14T07:19:33;11.68;;;2.20;;
59585;SDS011;45408;52.686;7.310;2023-03-14T07:21:59;8.32;;;1.83;;
59585;SDS011;45408;52.686;7.310;2023-03-14T07:24:25;11.15;;;2.42;;
59585;SDS011;45408;52.686;7.310;2023-03-14T07:26:51;6.38;;;1.92;;
59585;SDS011;45408;52.686;7.310;2023-03-14T07:29:17;9.93;;;2.03;;
59585;SDS011;45408;52.686;7.310;2023-03-14T07:31:43;9.38;;;2.33;;
59585;SDS011;45408;52.686;7.310;2023-03-14T07:34:09;9.73;;;2.20;;
59585;SDS011;45408;52.686;7.310;2023-03-14T07:36:35;7.10;;;2.35;;
59585;SDS011;45408;52.686;7.310;2023-03-14T07:39:01;12.30;;;2.50;;
59585;SDS011;45408;52.686;7.310;2023-03-14T07:41:29;12.25;;;2.30;;
59585;SDS011;45408;52.686;7.310;2023-03-14T07:43:55;6.13;;;1.80;;
59585;SDS011;45408;52.686;7.310;2023-03-14T07:46:21;2.72;;;1.55;;
59585;SDS011;45408;52.686;7.310;2023-03-14T07:48:47;11.25;;;2.10;;
59585;SDS011;45408;52.686;7.310;2023-03-14T07:51:13;8.13;;;1.75;;
59585;SDS011;45408;52.686;7.310;2023-03-14T07:53:39;6.32;;;1.73;;
59585;SDS011;45408;52.686;7.310;2023-03-14T07:56:05;6.63;;;2.10;;
59585;SDS011;45408;52.686;7.310;2023-03-14T07:58:31;12.70;;;1.92;;
59585;SDS011;45408;52.686;7.310;2023-03-14T08:00:58;9.48;;;2.22;;
59585;SDS011;45408;52.686;7.310;2023-03-14T08:03:24;7.18;;;1.90;;
59585;SDS011;45408;52.686;7.310;2023-03-14T08:05:50;4.70;;;1.45;;
59585;SDS011;45408;52.686;7.310;2023-03-14T08:08:16;5.82;;;2.08;;
59585;SDS011;45408;52.686;7.310;2023-03-14T08:10:42;4.45;;;1.80;;
59585;SDS011;45408;52.686;7.310;2023-03-14T08:13:09;7.75;;;2.17;;
59585;SDS011;45408;52.686;7.310;2023-03-14T08:15:35;6.57;;;1.85;;
59585;SDS011;45408;52.686;7.310;2023-03-14T08:18:02;5.13;;;1.67;;
59585;SDS011;45408;52.686;7.310;2023-03-14T08:20:28;8.07;;;1.85;;
59585;SDS011;45408;52.686;7.310;2023-03-14T08:22:55;7.90;;;1.83;;
59585;SDS011;45408;52.686;7.310;2023-03-14T08:25:22;2.00;;;1.00;;
59585;SDS011;45408;52.686;7.310;2023-03-14T08:27:48;1.48;;;0.52;;
59585;SDS011;45408;52.686;7.310;2023-03-14T08:30:14;2.28;;;0.50;;
59585;SDS011;45408;52.686;7.310;2023-03-14T08:32:41;4.10;;;0.70;;
59585;SDS011;45408;52.686;7.310;2023-03-14T08:35:07;3.20;;;0.40;;
59585;SDS011;45408;52.686;7.310;2023-03-14T08:37:34;3.72;;;0.80;;
59585;SDS011;45408;52.686;7.310;2023-03-14T08:40:01;2.03;;;0.47;;
59585;SDS011;45408;52.686;7.310;2023-03-14T08:42:29;2.47;;;0.80;;
59585;SDS011;45408;52.686;7.310;2023-03-14T08:44:55;1.50;;;0.77;;
59585;SDS011;45408;52.686;7.310;2023-03-14T08:47:21;3.35;;;0.63;;
59585;SDS011;45408;52.686;7.310;2023-03-14T08:49:47;2.40;;;0.57;;
59585;SDS011;45408;52.686;7.310;2023-03-14T08:52:13;2.92;;;0.60;;
59585;SDS011;45408;52.686;7.310;2023-03-14T08:54:41;2.25;;;0.40;;
59585;SDS011;45408;52.686;7.310;2023-03-14T08:57:07;1.25;;;0.30;;
59585;SDS011;45408;52.686;7.310;2023-03-14T08:59:33;4.65;;;1.08;;
59585;SDS011;45408;52.686;7.310;2023-03-14T09:01:59;2.05;;;0.50;;
59585;SDS011;45408;52.686;7.310;2023-03-14T09:04:28;0.38;;;0.20;;
59585;SDS011;45408;52.686;7.310;2023-03-14T09:06:54;1.88;;;0.70;;
59585;SDS011;45408;52.686;7.310;2023-03-14T09:09:20;2.78;;;0.20;;
59585;SDS011;45408;52.686;7.310;2023-03-14T09:11:47;0.28;;;0.22;;
59585;SDS011;45408;52.686;7.310;2023-03-14T09:14:13;0.55;;;0.30;;
59585;SDS011;45408;52.686;7.310;2023-03-14T09:16:39;3.28;;;0.22;;
59585;SDS011;45408;52.686;7.310;2023-03-14T09:19:05;1.40;;;0.20;;
59585;SDS011;45408;52.686;7.310;2023-03-14T09:21:30;0.65;;;0.20;;
59585;SDS011;45408;52.686;7.310;2023-03-14T09:23:56;1.75;;;0.28;;
59585;SDS011;45408;52.686;7.310;2023-03-14T09:26:22;0.17;;;0.10;;
59585;SDS011;45408;52.686;7.310;2023-03-14T09:28:48;0.20;;;0.20;;
59585;SDS011;45408;52.686;7.310;2023-03-14T09:31:14;0.65;;;0.40;;
59585;SDS011;45408;52.686;7.310;2023-03-14T09:33:40;2.17;;;0.40;;
59585;SDS011;45408;52.686;7.310;2023-03-14T09:36:06;0.40;;;0.22;;
59585;SDS011;45408;52.686;7.310;2023-03-14T09:38:33;2.05;;;0.40;;
59585;SDS011;45408;52.686;7.310;2023-03-14T09:41:00;0.35;;;0.35;;
59585;SDS011;45408;52.686;7.310;2023-03-14T09:43:28;0.90;;;0.30;;
59585;SDS011;45408;52.686;7.310;2023-03-14T09:45:55;1.95;;;0.55;;
59585;SDS011;45408;52.686;7.310;2023-03-14T09:48:26;1.13;;;0.30;;
59585;SDS011;45408;52.686;7.310;2023-03-14T09:50:56;0.50;;;0.15;;
59585;SDS011;45408;52.686;7.310;2023-03-14T09:53:24;1.40;;;0.57;;
59585;SDS011;45408;52.686;7.310;2023-03-14T09:55:51;0.80;;;0.40;;
59585;SDS011;45408;52.686;7.310;2023-03-14T09:58:20;1.42;;;0.40;;
59585;SDS011;45408;52.686;7.310;2023-03-14T10:00:47;1.73;;;0.50;;
59585;SDS011;45408;52.686;7.310;2023-03-14T10:03:29;2.40;;;0.50;;
59585;SDS011;45408;52.686;7.310;2023-03-14T10:05:56;1.65;;;0.60;;
59585;SDS011;45408;52.686;7.310;2023-03-14T10:08:22;1.85;;;0.57;;
59585;SDS011;45408;52.686;7.310;2023-03-14T10:10:48;3.90;;;0.65;;
59585;SDS011;45408;52.686;7.310;2023-03-14T10:13:16;1.85;;;0.50;;
59585;SDS011;45408;52.686;7.310;2023-03-14T10:15:46;1.65;;;0.50;;
59585;SDS011;45408;52.686;7.310;2023-03-14T10:18:13;2.85;;;0.40;;
59585;SDS011;45408;52.686;7.310;2023-03-14T10:20:40;2.17;;;0.80;;
59585;SDS011;45408;52.686;7.310;2023-03-14T10:25:37;2.92;;;0.60;;
59585;SDS011;45408;52.686;7.310;2023-03-14T10:28:03;7.03;;;1.00;;
59585;SDS011;45408;52.686;7.310;2023-03-14T10:30:34;3.30;;;0.50;;
59585;SDS011;45408;52.686;7.310;2023-03-14T10:33:30;5.70;;;1.10;;
59585;SDS011;45408;52.686;7.310;2023-03-14T10:35:56;4.13;;;0.82;;
59585;SDS011;45408;52.686;7.310;2023-03-14T10:38:24;4.22;;;0.70;;
59585;SDS011;45408;52.686;7.310;2023-03-14T10:40:51;8.45;;;1.15;;
59585;SDS011;45408;52.686;7.310;2023-03-14T10:43:19;2.85;;;0.65;;
59585;SDS011;45408;52.686;7.310;2023-03-14T10:45:51;11.63;;;1.70;;
59585;SDS011;45408;52.686;7.310;2023-03-14T10:48:21;7.55;;;1.23;;
59585;SDS011;45408;52.686;7.310;2023-03-14T10:50:48;12.38;;;1.33;;
59585;SDS011;45408;52.686;7.310;2023-03-14T10:53:16;4.15;;;0.80;;
59585;SDS011;45408;52.686;7.310;2023-03-14T10:55:42;12.00;;;1.75;;
59585;SDS011;45408;52.686;7.310;2023-03-14T11:00:52;8.93;;;1.73;;
59585;SDS011;45408;52.686;7.310;2023-03-14T11:03:19;8.25;;;1.58;;
59585;SDS011;45408;52.686;7.310;2023-03-14T11:05:53;14.48;;;1.73;;
59585;SDS011;45408;52.686;7.310;2023-03-14T11:08:31;12.10;;;1.88;;
59585;SDS011;45408;52.686;7.310;2023-03-14T11:11:07;7.18;;;1.42;;
59585;SDS011;45408;52.686;7.310;2023-03-14T11:18:39;17.98;;;1.88;;
59585;SDS011;45408;52.686;7.310;2023-03-14T11:21:52;19.25;;;1.67;;
59585;SDS011;45408;52.686;7.310;2023-03-14T11:31:54;15.52;;;2.38;;
59585;SDS011;45408;52.686;7.310;2023-03-14T11:36:51;16.80;;;1.85;;
59585;SDS011;45408;52.686;7.310;2023-03-14T11:39:18;14.23;;;2.97;;
59585;SDS011;45408;52.686;7.310;2023-03-14T11:41:46;14.40;;;2.10;;
59585;SDS011;45408;52.686;7.310;2023-03-14T11:44:17;17.38;;;2.63;;
59585;SDS011;45408;52.686;7.310;2023-03-14T11:46:49;14.75;;;1.80;;
59585;SDS011;45408;52.686;7.310;2023-03-14T11:50:00;14.55;;;1.98;;
59585;SDS011;45408;52.686;7.310;2023-03-14T11:52:09;14.35;;;1.77;;
59585;SDS011;45408;52.686;7.310;2023-03-14T11:54:39;14.80;;;2.13;;
59585;SDS011;45408;52.686;7.310;2023-03-14T11:57:17;18.85;;;2.50;;
59585;SDS011;45408;52.686;7.310;2023-03-14T11:59:50;10.30;;;1.80;;
59585;SDS011;45408;52.686;7.310;2023-03-14T12:02:31;12.70;;;1.83;;
59585;SDS011;45408;52.686;7.310;2023-03-14T12:08:00;10.38;;;1.55;;
59585;SDS011;45408;52.686;7.310;2023-03-14T12:10:29;10.65;;;1.58;;
59585;SDS011;45408;52.686;7.310;2023-03-14T12:12:55;22.05;;;1.85;;
59585;SDS011;45408;52.686;7.310;2023-03-14T12:15:22;8.38;;;1.50;;
59585;SDS011;45408;52.686;7.310;2023-03-14T12:17:55;11.50;;;1.42;;
59585;SDS011;45408;52.686;7.310;2023-03-14T12:20:22;10.57;;;1.75;;
59585;SDS011;45408;52.686;7.310;2023-03-14T12:22:52;7.97;;;1.45;;
59585;SDS011;45408;52.686;7.310;2023-03-14T12:25:20;9.05;;;1.75;;
59585;SDS011;45408;52.686;7.310;2023-03-14T12:27:48;11.98;;;2.10;;
59585;SDS011;45408;52.686;7.310;2023-03-14T12:38:03;9.13;;;1.83;;
59585;SDS011;45408;52.686;7.310;2023-03-14T12:40:34;3.80;;;1.48;;
59585;SDS011;45408;52.686;7.310;2023-03-14T12:43:04;8.77;;;1.98;;
59585;SDS011;45408;52.686;7.310;2023-03-14T12:45:31;5.45;;;1.42;;
59585;SDS011;45408;52.686;7.310;2023-03-14T12:50:55;8.07;;;1.52;;
59585;SDS011;45408;52.686;7.310;2023-03-14T12:53:33;3.97;;;0.98;;
59585;SDS011;45408;52.686;7.310;2023-03-14T12:58:48;10.63;;;1.10;;
59585;SDS011;45408;52.686;7.310;2023-03-14T13:01:17;10.85;;;1.30;;
59585;SDS011;45408;52.686;7.310;2023-03-14T13:03:47;2.72;;;0.90;;
59585;SDS011;45408;52.686;7.310;2023-03-14T13:09:22;5.20;;;0.50;;
59585;SDS011;45408;52.686;7.310;2023-03-14T13:11:46;8.50;;;0.80;;
59585;SDS011;45408;52.686;7.310;2023-03-14T13:14:12;3.45;;;0.88;;
59585;SDS011;45408;52.686;7.310;2023-03-14T13:16:39;3.10;;;0.70;;
59585;SDS011;45408;52.686;7.310;2023-03-14T13:19:14;11.52;;;1.25;;
59585;SDS011;45408;52.686;7.310;2023-03-14T13:21:41;6.30;;;1.17;;
59585;SDS011;45408;52.686;7.310;2023-03-14T13:24:20;2.40;;;0.90;;
59585;SDS011;45408;52.686;7.310;2023-03-14T13:26:46;7.93;;;1.23;;
59585;SDS011;45408;52.686;7.310;2023-03-14T13:31:45;9.13;;;1.17;;
59585;SDS011;45408;52.686;7.310;2023-03-14T13:34:11;7.75;;;1.30;;
59585;SDS011;45408;52.686;7.310;2023-03-14T13:36:38;6.68;;;1.10;;
59585;SDS011;45408;52.686;7.310;2023-03-14T13:39:06;7.30;;;1.20;;
59585;SDS011;45408;52.686;7.310;2023-03-14T13:41:37;3.83;;;0.90;;
59585;SDS011;45408;52.686;7.310;2023-03-14T13:44:05;3.33;;;0.82;;
59585;SDS011;45408;52.686;7.310;2023-03-14T13:46:35;9.93;;;0.98;;
59585;SDS011;45408;52.686;7.310;2023-03-14T13:49:03;10.77;;;1.30;;
59585;SDS011;45408;52.686;7.310;2023-03-14T13:51:29;6.38;;;1.20;;
59585;SDS011;45408;52.686;7.310;2023-03-14T13:53:58;6.18;;;1.02;;
59585;SDS011;45408;52.686;7.310;2023-03-14T13:56:25;4.57;;;1.00;;
59585;SDS011;45408;52.686;7.310;2023-03-14T13:58:51;4.78;;;1.50;;
59585;SDS011;45408;52.686;7.310;2023-03-14T14:03:50;12.85;;;1.17;;
59585;SDS011;45408;52.686;7.310;2023-03-14T14:06:26;7.82;;;1.58;;
59585;SDS011;45408;52.686;7.310;2023-03-14T14:08:54;7.35;;;1.45;;
59585;SDS011;45408;52.686;7.310;2023-03-14T14:12:03;10.88;;;1.52;;
59585;SDS011;45408;52.686;7.310;2023-03-14T14:14:17;10.50;;;1.80;;
59585;SDS011;45408;52.686;7.310;2023-03-14T14:16:45;10.50;;;2.25;;
59585;SDS011;45408;52.686;7.310;2023-03-14T14:19:13;11.48;;;1.50;;
59585;SDS011;45408;52.686;7.310;2023-03-14T14:21:39;7.90;;;1.08;;
59585;SDS011;45408;52.686;7.310;2023-03-14T14:24:05;11.93;;;2.33;;
59585;SDS011;45408;52.686;7.310;2023-03-14T14:26:31;12.68;;;3.15;;
59585;SDS011;45408;52.686;7.310;2023-03-14T14:28:58;9.57;;;1.92;;
59585;SDS011;45408;52.686;7.310;2023-03-14T14:31:24;12.05;;;1.73;;
59585;SDS011;45408;52.686;7.310;2023-03-14T14:38:48;9.90;;;1.52;;
59585;SDS011;45408;52.686;7.310;2023-03-14T14:41:14;7.88;;;1.75;;
59585;SDS011;45408;52.686;7.310;2023-03-14T14:43:40;14.70;;;1.70;;
59585;SDS011;45408;52.686;7.310;2023-03-14T14:46:06;8.25;;;2.10;;
59585;SDS011;45408;52.686;7.310;2023-03-14T14:48:35;3.78;;;0.95;;
59585;SDS011;45408;52.686;7.310;2023-03-14T14:51:03;13.85;;;2.55;;
59585;SDS011;45408;52.686;7.310;2023-03-14T14:53:36;10.57;;;1.70;;
59585;SDS011;45408;52.686;7.310;2023-03-14T14:58:47;5.03;;;1.13;;
59585;SDS011;45408;52.686;7.310;2023-03-14T15:03:44;7.72;;;1.35;;
59585;SDS011;45408;52.686;7.310;2023-03-14T15:06:11;3.22;;;0.80;;
59585;SDS011;45408;52.686;7.310;2023-03-14T15:08:38;8.25;;;1.40;;
59585;SDS011;45408;52.686;7.310;2023-03-14T15:11:04;13.55;;;1.40;;
59585;SDS011;45408;52.686;7.310;2023-03-14T15:13:30;8.20;;;1.00;;
59585;SDS011;45408;52.686;7.310;2023-03-14T15:15:56;7.05;;;1.48;;
59585;SDS011;45408;52.686;7.310;2023-03-14T15:18:23;6.93;;;1.20;;
59585;SDS011;45408;52.686;7.310;2023-03-14T15:20:50;5.82;;;1.02;;
59585;SDS011;45408;52.686;7.310;2023-03-14T15:23:17;7.15;;;1.40;;
59585;SDS011;45408;52.686;7.310;2023-03-14T15:25:43;10.93;;;1.83;;
59585;SDS011;45408;52.686;7.310;2023-03-14T15:28:24;6.72;;;0.90;;
59585;SDS011;45408;52.686;7.310;2023-03-14T15:30:50;8.75;;;0.90;;
59585;SDS011;45408;52.686;7.310;2023-03-14T15:33:17;3.10;;;0.93;;
59585;SDS011;45408;52.686;7.310;2023-03-14T15:35:43;7.88;;;1.17;;
59585;SDS011;45408;52.686;7.310;2023-03-14T15:38:14;5.32;;;1.02;;
59585;SDS011;45408;52.686;7.310;2023-03-14T15:40:40;4.85;;;1.20;;
59585;SDS011;45408;52.686;7.310;2023-03-14T15:43:06;4.47;;;1.25;;
59585;SDS011;45408;52.686;7.310;2023-03-14T15:45:33;5.68;;;1.20;;
59585;SDS011;45408;52.686;7.310;2023-03-14T15:47:59;9.43;;;0.95;;
59585;SDS011;45408;52.686;7.310;2023-03-14T15:50:25;5.63;;;1.15;;